Terminal Aerodrome Forecast
Issued by NWS

Current Version | Previous Version | Text Only | Print | Product List | Glossary Off
Versions: 1 2 3 4 5 6 7 8 9 10 11 12 13 14 15 16 17 18 19 20

000
FTUS41 KILN 230856 AAA
TAFLUK
TAF AMD
KLUK 230856Z 2309/2406 05008KT P6SM SCT200
     FM231300 05012G17KT P6SM FEW230
     FM240000 05007KT P6SM FEW230=

USA.gov is the U.S. government's official web portal to all federal, state and local government web resources and services.